Time;durP1;ratioP1;P1;durP2;ratioP2;P2;SDS_P1;SDS_P2;PMS_P1;PMS_P2;Temp;Humidity;BMP_temperature;BMP_pressure;BME280_temperature;BME280_humidity;BME280_pressure;Samples;Min_cycle;Max_cycle;Signal;HPM_P1;HPM_P2
2023/05/30 00:00:13;;;;;;;;;;;;;;;;;;5073107;28;19924;-72
2023/05/30 00:02:39;;;;;;;;;;;;;;;;;;5073365;28;19912;-71
2023/05/30 00:05:04;;;;;;;;;;;;;;;;;;5073567;28;19915;-72
2023/05/30 00:07:31;;;;;;;;;;;;;;;;;;5073491;28;20279;-72
2023/05/30 00:09:56;;;;;;;;;;;;;;;;;;5073022;28;19950;-72
2023/05/30 00:12:21;;;;;;;;;;;;;;;;;;5072997;28;20311;-72
2023/05/30 00:14:47;;;;;;;;;;;;;;;;;;5072971;28;19912;-72
2023/05/30 00:17:16;;;;;;;;;;;;;;;;;;5073188;28;19913;-72
2023/05/30 00:19:42;;;;;;;;;;;;;;;;;;5073039;28;19943;-72
2023/05/30 00:22:07;;;;;;;;;;;;;;;;;;5072908;28;20355;-72
2023/05/30 00:24:33;;;;;;;;;;;;;;;;;;5072880;28;20024;-72
2023/05/30 00:26:58;;;;;;;;;;;;;;;;;;5073173;28;19920;-72
2023/05/30 00:29:23;;;;;;;;;;;;;;;;;;5072480;28;19920;-73
2023/05/30 00:31:48;;;;;;;;;;;;;;;;;;5054104;28;20279;-73
2023/05/30 00:34:15;;;;;;;;;;;;;;;;;;5072705;28;19912;-73
2023/05/30 00:36:40;;;;;;;;;;;;;;;;;;5072911;28;19919;-73
2023/05/30 00:39:06;;;;;;;;;;;;;;;;;;5054556;28;19916;-72
2023/05/30 00:41:31;;;;;;;;;;;;;;;;;;5072520;28;19912;-72
2023/05/30 00:43:56;;;;;;;;;;;;;;;;;;5072499;28;19913;-72
2023/05/30 00:46:23;;;;;;;;;;;;;;;;;;5072826;28;19966;-72
2023/05/30 00:48:49;;;;;;;;;;;;;;;;;;5054878;28;19974;-72
2023/05/30 00:51:15;;;;;;;;;;;;;;;;;;5054662;28;20356;-72
2023/05/30 00:53:41;;;;;;;;;;;;;;;;;;5072584;28;19999;-72
2023/05/30 00:56:07;;;;;;;;;;;;;;;;;;5054575;28;20402;-72
2023/05/30 00:58:32;;;;;;;;;;;;;;;;;;5054498;28;19916;-72
2023/05/30 01:00:59;;;;;;;;;;;;;;;;;;5072330;28;19923;-72
2023/05/30 01:03:24;;;;;;;;;;;;;;;;;;5072449;28;19916;-72
2023/05/30 01:05:50;;;;;;;;;;;;;;;;;;5054477;28;19915;-72
2023/05/30 01:08:18;;;;;;;;;;;;;;;;;;5072363;28;20373;-72
2023/05/30 01:10:43;;;;;;;;;;;;;;;;;;5072187;28;19960;-72
2023/05/30 01:13:09;;;;;;;;;;;;;;;;;;5054487;28;19904;-72
2023/05/30 01:15:35;;;;;;;;;;;;;;;;;;5070897;28;20006;-72
2023/05/30 01:18:04;;;;;;;;;;;;;;;;;;5072655;28;19955;-72
2023/05/30 01:20:29;;;;;;;;;;;;;;;;;;5053966;28;19927;-72
2023/05/30 01:22:55;;;;;;;;;;;;;;;;;;5070152;28;20179;-73
2023/05/30 01:25:21;;;;;;;;;;;;;;;;;;5051915;28;19917;-72
2023/05/30 01:27:46;;;;;;;;;;;;;;;;;;5051984;28;19919;-72
2023/05/30 01:30:11;;;;;;;;;;;;;;;;;;5034324;28;19913;-74
2023/05/30 01:32:36;;;;;;;;;;;;;;;;;;5070280;28;20385;-71
2023/05/30 01:35:02;;;;;;;;;;;;;;;;;;5066342;28;19912;-71
2023/05/30 01:37:28;;;;;;;;;;;;;;;;;;5074035;28;19915;-72
2023/05/30 01:39:53;;;;;;;;;;;;;;;;;;5084268;28;19916;-72
2023/05/30 01:42:18;;;;;;;;;;;;;;;;;;5045053;28;19919;-70
2023/05/30 01:44:43;;;;;;;;;;;;;;;;;;5075116;28;19920;-71
2023/05/30 01:47:10;;;;;;;;;;;;;;;;;;5057214;28;19970;-71
2023/05/30 01:49:35;;;;;;;;;;;;;;;;;;5057054;28;19975;-71
2023/05/30 01:52:01;;;;;;;;;;;;;;;;;;5068404;28;20519;-71
2023/05/30 01:54:26;;;;;;;;;;;;;;;;;;5057213;28;19965;-71
2023/05/30 01:56:51;;;;;;;;;;;;;;;;;;5056947;28;20000;-71
2023/05/30 01:59:16;;;;;;;;;;;;;;;;;;5057249;28;19916;-72
2023/05/30 02:01:42;;;;;;;;;;;;;;;;;;5057109;28;19982;-72
2023/05/30 02:04:07;;;;;;;;;;;;;;;;;;5077764;28;19912;-72
2023/05/30 02:06:32;;;;;;;;;;;;;;;;;;5068088;28;19907;-71
2023/05/30 02:08:57;;;;;;;;;;;;;;;;;;5072738;28;19924;-71
2023/05/30 02:11:23;;;;;;;;;;;;;;;;;;5061601;28;20007;-71
2023/05/30 02:13:51;;;;;;;;;;;;;;;;;;5069084;28;19916;-71
2023/05/30 02:16:18;;;;;;;;;;;;;;;;;;5056826;28;19913;-71
2023/05/30 02:18:44;;;;;;;;;;;;;;;;;;5057049;28;19912;-71
2023/05/30 02:21:10;;;;;;;;;;;;;;;;;;5056826;28;19916;-72
2023/05/30 02:23:36;;;;;;;;;;;;;;;;;;5074838;28;19916;-72
2023/05/30 02:26:03;;;;;;;;;;;;;;;;;;5074670;28;19962;-71
2023/05/30 02:28:29;;;;;;;;;;;;;;;;;;5064433;28;19916;-72
2023/05/30 02:30:56;;;;;;;;;;;;;;;;;;5057038;28;20326;-73
2023/05/30 02:33:21;;;;;;;;;;;;;;;;;;5074691;28;20010;-72
2023/05/30 02:35:47;;;;;;;;;;;;;;;;;;5056714;28;20279;-72
2023/05/30 02:38:12;;;;;;;;;;;;;;;;;;5074480;28;19908;-72
2023/05/30 02:40:37;;;;;;;;;;;;;;;;;;5074451;28;20268;-72
2023/05/30 02:43:02;;;;;;;;;;;;;;;;;;5074379;28;20016;-70
2023/05/30 02:45:28;;;;;;;;;;;;;;;;;;5074469;28;19966;-70
2023/05/30 02:47:53;;;;;;;;;;;;;;;;;;5056443;28;20314;-70
2023/05/30 02:50:18;;;;;;;;;;;;;;;;;;5056620;28;19920;-70
2023/05/30 02:52:44;;;;;;;;;;;;;;;;;;5056523;28;20330;-70
2023/05/30 02:55:12;;;;;;;;;;;;;;;;;;5055544;28;19948;-70
2023/05/30 02:58:07;;;;;;;;;;;;;;;;;;5056847;28;20264;-72
2023/05/30 03:00:42;;;;;;;;;;;;;;;;;;5072608;28;19923;-72
2023/05/30 03:03:15;;;;;;;;;;;;;;;;;;5051144;28;19930;-72
2023/05/30 03:05:47;;;;;;;;;;;;;;;;;;5052083;28;20006;-72
2023/05/30 03:08:22;;;;;;;;;;;;;;;;;;5052335;28;19924;-72
2023/05/30 03:10:47;;;;;;;;;;;;;;;;;;5067270;28;19924;-71
2023/05/30 03:13:13;;;;;;;;;;;;;;;;;;5031938;28;20328;-71
2023/05/30 03:15:39;;;;;;;;;;;;;;;;;;5045134;28;19917;-72
2023/05/30 03:18:04;;;;;;;;;;;;;;;;;;5051696;28;20301;-71
2023/05/30 03:20:31;;;;;;;;;;;;;;;;;;5069282;28;19917;-70
2023/05/30 03:22:57;;;;;;;;;;;;;;;;;;5051970;28;20002;-72
2023/05/30 03:25:22;;;;;;;;;;;;;;;;;;5051513;28;20316;-71
2023/05/30 03:27:50;;;;;;;;;;;;;;;;;;5052049;28;20364;-71
2023/05/30 03:30:17;;;;;;;;;;;;;;;;;;5051334;28;19919;-71
2023/05/30 03:32:42;;;;;;;;;;;;;;;;;;5034874;28;19912;-71
2023/05/30 03:35:08;;;;;;;;;;;;;;;;;;5031404;28;20368;-71
2023/05/30 03:37:34;;;;;;;;;;;;;;;;;;5031828;28;19913;-71
2023/05/30 03:39:59;;;;;;;;;;;;;;;;;;5034937;28;19920;-69
2023/05/30 03:42:24;;;;;;;;;;;;;;;;;;5034690;28;19955;-69
2023/05/30 03:44:50;;;;;;;;;;;;;;;;;;5069794;28;19923;-70
2023/05/30 03:47:15;;;;;;;;;;;;;;;;;;5069644;28;19997;-70
2023/05/30 03:49:40;;;;;;;;;;;;;;;;;;5051116;28;19912;-71
2023/05/30 03:52:05;;;;;;;;;;;;;;;;;;5068908;28;20003;-72
2023/05/30 03:54:32;;;;;;;;;;;;;;;;;;5069144;28;20386;-72
2023/05/30 03:56:57;;;;;;;;;;;;;;;;;;5051286;28;19913;-72
2023/05/30 03:59:22;;;;;;;;;;;;;;;;;;5069162;28;20484;-72
2023/05/30 04:01:47;;;;;;;;;;;;;;;;;;5069074;28;19916;-71
2023/05/30 04:04:13;;;;;;;;;;;;;;;;;;5050671;28;19948;-71
2023/05/30 04:06:38;;;;;;;;;;;;;;;;;;5049890;28;19912;-71
2023/05/30 04:09:03;;;;;;;;;;;;;;;;;;5050568;28;19947;-71
2023/05/30 04:11:29;;;;;;;;;;;;;;;;;;5051186;28;19942;-71
2023/05/30 04:13:54;;;;;;;;;;;;;;;;;;5034329;28;19916;-70
2023/05/30 04:16:19;;;;;;;;;;;;;;;;;;5064610;28;19999;-71
2023/05/30 04:18:47;;;;;;;;;;;;;;;;;;5057628;28;19965;-70
2023/05/30 04:21:12;;;;;;;;;;;;;;;;;;5030059;28;19921;-71
2023/05/30 04:23:42;;;;;;;;;;;;;;;;;;5030926;28;19999;-70
2023/05/30 04:26:08;;;;;;;;;;;;;;;;;;5073870;28;19920;-72
2023/05/30 04:28:36;;;;;;;;;;;;;;;;;;5051129;28;19916;-72
2023/05/30 04:31:05;;;;;;;;;;;;;;;;;;5050854;28;19923;-72
2023/05/30 04:33:34;;;;;;;;;;;;;;;;;;5050883;28;20207;-73
2023/05/30 04:35:59;;;;;;;;;;;;;;;;;;5049945;28;19913;-73
2023/05/30 04:38:26;;;;;;;;;;;;;;;;;;5034404;28;19920;-71
2023/05/30 04:40:51;;;;;;;;;;;;;;;;;;5050476;28;19924;-70
2023/05/30 04:43:19;;;;;;;;;;;;;;;;;;5050850;28;20371;-72
2023/05/30 04:45:44;;;;;;;;;;;;;;;;;;5068850;28;19995;-71
2023/05/30 04:48:11;;;;;;;;;;;;;;;;;;5050965;28;20390;-71
2023/05/30 04:50:38;;;;;;;;;;;;;;;;;;5068683;28;19912;-71
2023/05/30 04:53:03;;;;;;;;;;;;;;;;;;5067424;28;19924;-71
2023/05/30 04:55:29;;;;;;;;;;;;;;;;;;5070199;28;19917;-71
2023/05/30 04:57:54;;;;;;;;;;;;;;;;;;5059512;28;19927;-71
2023/05/30 05:00:20;;;;;;;;;;;;;;;;;;5057217;28;20450;-72
2023/05/30 05:02:46;;;;;;;;;;;;;;;;;;5055930;28;19916;-71
2023/05/30 05:05:11;;;;;;;;;;;;;;;;;;5053024;28;20481;-71
2023/05/30 05:07:37;;;;;;;;;;;;;;;;;;5066874;28;20477;-71
2023/05/30 05:10:02;;;;;;;;;;;;;;;;;;5071374;28;19909;-69
2023/05/30 05:12:28;;;;;;;;;;;;;;;;;;5048270;28;19913;-71
2023/05/30 05:14:53;;;;;;;;;;;;;;;;;;5067033;28;19916;-72
2023/05/30 05:17:18;;;;;;;;;;;;;;;;;;5068615;28;19944;-71
2023/05/30 05:19:44;;;;;;;;;;;;;;;;;;5071143;28;19995;-72
2023/05/30 05:22:09;;;;;;;;;;;;;;;;;;5064574;28;19962;-72
2023/05/30 05:24:35;;;;;;;;;;;;;;;;;;5054036;28;19962;-71
2023/05/30 05:27:01;;;;;;;;;;;;;;;;;;5053903;28;20019;-72
2023/05/30 05:29:26;;;;;;;;;;;;;;;;;;5071268;28;20403;-71
2023/05/30 05:31:51;;;;;;;;;;;;;;;;;;5071649;28;20404;-71
2023/05/30 05:34:16;;;;;;;;;;;;;;;;;;5071284;28;19912;-71
2023/05/30 05:36:45;;;;;;;;;;;;;;;;;;5056625;28;19995;-71
2023/05/30 05:39:10;;;;;;;;;;;;;;;;;;5061262;28;19919;-71
2023/05/30 05:41:35;;;;;;;;;;;;;;;;;;5068400;28;19920;-73
2023/05/30 05:44:00;;;;;;;;;;;;;;;;;;5069667;28;20015;-74
2023/05/30 05:46:26;;;;;;;;;;;;;;;;;;5067733;28;19975;-72
2023/05/30 05:48:51;;;;;;;;;;;;;;;;;;5068960;28;19908;-71
2023/05/30 05:51:16;;;;;;;;;;;;;;;;;;5069561;28;19995;-71
2023/05/30 05:53:42;;;;;;;;;;;;;;;;;;5071501;28;20015;-72
2023/05/30 05:56:07;;;;;;;;;;;;;;;;;;5070811;28;19966;-73
2023/05/30 05:58:32;;;;;;;;;;;;;;;;;;5075125;28;19916;-73
2023/05/30 06:00:57;;;;;;;;;;;;;;;;;;5072415;28;20022;-72
2023/05/30 06:03:22;;;;;;;;;;;;;;;;;;5070286;28;19952;-71
2023/05/30 06:05:48;;;;;;;;;;;;;;;;;;5052818;28;19913;-71
2023/05/30 06:08:13;;;;;;;;;;;;;;;;;;5070678;28;19912;-70
2023/05/30 06:10:38;;;;;;;;;;;;;;;;;;5053242;28;20022;-70
2023/05/30 06:13:04;;;;;;;;;;;;;;;;;;5071376;28;19912;-71
2023/05/30 06:15:29;;;;;;;;;;;;;;;;;;5071318;28;20276;-72
2023/05/30 06:17:54;;;;;;;;;;;;;;;;;;5071124;28;19916;-72
2023/05/30 06:20:20;;;;;;;;;;;;;;;;;;5070367;28;20364;-73
2023/05/30 06:22:45;;;;;;;;;;;;;;;;;;5071029;28;19917;-72
2023/05/30 06:25:10;;;;;;;;;;;;;;;;;;5070937;28;19943;-73
2023/05/30 06:27:36;;;;;;;;;;;;;;;;;;5068702;28;20026;-73
2023/05/30 06:30:01;;;;;;;;;;;;;;;;;;5074237;28;19916;-73
2023/05/30 06:32:26;;;;;;;;;;;;;;;;;;5068557;28;19916;-73
2023/05/30 06:34:51;;;;;;;;;;;;;;;;;;5069284;28;20668;-73
2023/05/30 06:37:17;;;;;;;;;;;;;;;;;;5067085;28;19961;-73
2023/05/30 06:39:42;;;;;;;;;;;;;;;;;;5070009;28;19919;-72
2023/05/30 06:42:07;;;;;;;;;;;;;;;;;;5069830;28;20018;-73
2023/05/30 06:44:37;;;;;;;;;;;;;;;;;;5069840;28;20282;-73
2023/05/30 06:47:02;;;;;;;;;;;;;;;;;;5069752;28;19908;-72
2023/05/30 06:49:27;;;;;;;;;;;;;;;;;;5053019;28;19908;-71
2023/05/30 06:51:52;;;;;;;;;;;;;;;;;;5072605;28;20352;-72
2023/05/30 06:54:18;;;;;;;;;;;;;;;;;;5052981;28;19965;-72
2023/05/30 06:56:43;;;;;;;;;;;;;;;;;;5069901;28;20314;-73
2023/05/30 06:59:08;;;;;;;;;;;;;;;;;;5070074;28;19912;-72
2023/05/30 07:01:33;;;;;;;;;;;;;;;;;;5060009;28;19927;-71
2023/05/30 07:03:59;;;;;;;;;;;;;;;;;;5049613;28;19958;-71
2023/05/30 07:06:24;;;;;;;;;;;;;;;;;;5049531;28;19939;-71
2023/05/30 07:08:50;;;;;;;;;;;;;;;;;;5049806;28;19912;-72
2023/05/30 07:11:15;;;;;;;;;;;;;;;;;;5056598;28;19962;-72
2023/05/30 07:13:40;;;;;;;;;;;;;;;;;;5069885;28;19916;-71
2023/05/30 07:16:05;;;;;;;;;;;;;;;;;;5068797;28;19912;-71
2023/05/30 07:18:31;;;;;;;;;;;;;;;;;;5070068;28;19973;-71
2023/05/30 07:20:56;;;;;;;;;;;;;;;;;;5069750;28;19916;-70
2023/05/30 07:23:22;;;;;;;;;;;;;;;;;;5069328;28;19916;-71
2023/05/30 07:25:47;;;;;;;;;;;;;;;;;;5069604;28;19919;-72
2023/05/30 07:28:12;;;;;;;;;;;;;;;;;;5069352;28;19920;-71
2023/05/30 07:30:37;;;;;;;;;;;;;;;;;;5069253;28;19985;-71
2023/05/30 07:33:03;;;;;;;;;;;;;;;;;;5069328;28;20045;-70
2023/05/30 07:35:28;;;;;;;;;;;;;;;;;;5051242;28;19978;-70
2023/05/30 07:37:53;;;;;;;;;;;;;;;;;;5068908;28;20359;-70
2023/05/30 07:40:18;;;;;;;;;;;;;;;;;;5050561;28;19927;-70
2023/05/30 07:42:44;;;;;;;;;;;;;;;;;;5069772;28;19961;-73
2023/05/30 07:45:09;;;;;;;;;;;;;;;;;;5069408;28;19913;-72
2023/05/30 07:47:34;;;;;;;;;;;;;;;;;;5068945;28;19958;-71
2023/05/30 07:50:00;;;;;;;;;;;;;;;;;;5073134;28;19912;-73
2023/05/30 07:52:25;;;;;;;;;;;;;;;;;;5066529;28;20054;-72
2023/05/30 07:54:50;;;;;;;;;;;;;;;;;;5069214;28;19939;-73
2023/05/30 07:57:15;;;;;;;;;;;;;;;;;;5069150;28;20006;-72
2023/05/30 07:59:41;;;;;;;;;;;;;;;;;;5069217;28;19916;-72
2023/05/30 08:02:06;;;;;;;;;;;;;;;;;;5069601;28;20294;-74
2023/05/30 08:04:31;;;;;;;;;;;;;;;;;;5070015;28;19912;-74
2023/05/30 08:06:56;;;;;;;;;;;;;;;;;;5062643;28;20415;-74
2023/05/30 08:09:22;;;;;;;;;;;;;;;;;;5046845;28;19912;-79
2023/05/30 08:11:47;;;;;;;;;;;;;;;;;;5048633;28;19935;-81
2023/05/30 08:14:13;;;;;;;;;;;;;;;;;;5048251;28;19916;-85
2023/05/30 08:16:39;;;;;;;;;;;;;;;;;;5048911;28;19919;-88
2023/05/30 08:19:04;;;;;;;;;;;;;;;;;;5048310;28;19952;-79
2023/05/30 08:21:31;;;;;;;;;;;;;;;;;;5056034;28;20037;-77
2023/05/30 08:23:57;;;;;;;;;;;;;;;;;;5066934;28;20477;-76
2023/05/30 08:26:24;;;;;;;;;;;;;;;;;;5066461;28;19912;-73
2023/05/30 08:28:49;;;;;;;;;;;;;;;;;;5066861;28;19916;-72
2023/05/30 08:31:15;;;;;;;;;;;;;;;;;;5065641;28;19993;-73
2023/05/30 08:33:40;;;;;;;;;;;;;;;;;;5066389;28;19912;-73
2023/05/30 08:36:06;;;;;;;;;;;;;;;;;;5066230;28;20038;-71
2023/05/30 08:38:31;;;;;;;;;;;;;;;;;;5049015;28;19919;-71
2023/05/30 08:40:56;;;;;;;;;;;;;;;;;;5050438;28;19917;-70
2023/05/30 08:43:21;;;;;;;;;;;;;;;;;;5066559;28;19934;-70
2023/05/30 08:45:47;;;;;;;;;;;;;;;;;;5057875;28;20305;-71
2023/05/30 08:48:12;;;;;;;;;;;;;;;;;;5058641;28;20011;-71
2023/05/30 08:50:37;;;;;;;;;;;;;;;;;;5056020;28;19986;-69
2023/05/30 08:53:02;;;;;;;;;;;;;;;;;;5059125;28;20339;-70
2023/05/30 08:55:28;;;;;;;;;;;;;;;;;;5061493;28;20034;-77
2023/05/30 08:57:54;;;;;;;;;;;;;;;;;;5058284;28;19953;-75
2023/05/30 09:00:19;;;;;;;;;;;;;;;;;;5057343;28;20411;-74
2023/05/30 09:02:44;;;;;;;;;;;;;;;;;;5067834;28;19922;-75
2023/05/30 09:05:09;;;;;;;;;;;;;;;;;;5069710;28;19923;-81
2023/05/30 09:07:35;;;;;;;;;;;;;;;;;;5069357;28;19923;-75
2023/05/30 09:10:00;;;;;;;;;;;;;;;;;;5051259;28;19923;-73
2023/05/30 09:12:26;;;;;;;;;;;;;;;;;;5060162;28;19986;-74
2023/05/30 09:14:51;;;;;;;;;;;;;;;;;;5059761;28;20433;-74
2023/05/30 09:17:16;;;;;;;;;;;;;;;;;;5057664;28;19999;-75
2023/05/30 09:19:42;;;;;;;;;;;;;;;;;;5051643;28;19916;-74
2023/05/30 09:22:07;;;;;;;;;;;;;;;;;;5067178;28;19982;-75
2023/05/30 09:24:32;;;;;;;;;;;;;;;;;;5066304;28;20006;-74
2023/05/30 09:26:58;;;;;;;;;;;;;;;;;;5067711;28;20462;-75
2023/05/30 09:29:24;;;;;;;;;;;;;;;;;;5066965;28;20287;-76
2023/05/30 09:31:49;;;;;;;;;;;;;;;;;;5067194;28;19912;-75
2023/05/30 09:34:15;;;;;;;;;;;;;;;;;;5067879;28;20050;-74
2023/05/30 09:36:40;;;;;;;;;;;;;;;;;;5066989;28;19962;-74
2023/05/30 09:39:05;;;;;;;;;;;;;;;;;;5068959;28;19995;-73
2023/05/30 09:41:31;;;;;;;;;;;;;;;;;;5069212;28;19922;-74
2023/05/30 09:43:56;;;;;;;;;;;;;;;;;;5051081;28;20851;-74
2023/05/30 09:46:21;;;;;;;;;;;;;;;;;;5068837;28;19916;-74
2023/05/30 09:48:47;;;;;;;;;;;;;;;;;;5069158;28;19922;-75
2023/05/30 09:51:14;;;;;;;;;;;;;;;;;;5070022;28;20268;-76
2023/05/30 09:53:39;;;;;;;;;;;;;;;;;;5070860;28;19912;-74
2023/05/30 09:56:05;;;;;;;;;;;;;;;;;;5070991;28;19962;-76
2023/05/30 09:58:30;;;;;;;;;;;;;;;;;;5070896;28;19938;-76
2023/05/30 10:00:55;;;;;;;;;;;;;;;;;;5070671;28;19916;-76
2023/05/30 10:03:20;;;;;;;;;;;;;;;;;;5070651;28;19916;-76
2023/05/30 10:05:46;;;;;;;;;;;;;;;;;;5070829;28;20009;-78
2023/05/30 10:08:11;;;;;;;;;;;;;;;;;;5070154;28;19920;-77
2023/05/30 10:10:36;;;;;;;;;;;;;;;;;;5069159;28;19916;-77
2023/05/30 10:13:02;;;;;;;;;;;;;;;;;;5070555;28;19920;-77
2023/05/30 10:15:28;;;;;;;;;;;;;;;;;;5070754;28;19939;-75
2023/05/30 10:17:53;;;;;;;;;;;;;;;;;;5070478;28;19916;-76
2023/05/30 10:20:19;;;;;;;;;;;;;;;;;;5070268;28;19974;-76
2023/05/30 10:22:44;;;;;;;;;;;;;;;;;;5070894;28;19970;-77
2023/05/30 10:25:10;;;;;;;;;;;;;;;;;;5070037;28;19912;-76
2023/05/30 10:27:35;;;;;;;;;;;;;;;;;;5070473;28;19924;-76
2023/05/30 10:30:00;;;;;;;;;;;;;;;;;;5051869;28;20011;-75
2023/05/30 10:32:26;;;;;;;;;;;;;;;;;;5069253;28;19960;-75
2023/05/30 10:34:53;;;;;;;;;;;;;;;;;;5070507;28;19913;-75
2023/05/30 10:37:19;;;;;;;;;;;;;;;;;;5069851;28;19920;-76
2023/05/30 10:39:44;;;;;;;;;;;;;;;;;;5069822;28;20008;-75
2023/05/30 10:42:09;;;;;;;;;;;;;;;;;;5069723;28;20046;-77
2023/05/30 10:44:34;;;;;;;;;;;;;;;;;;5070028;28;19917;-76
2023/05/30 10:47:00;;;;;;;;;;;;;;;;;;5070459;28;20406;-76
2023/05/30 10:49:26;;;;;;;;;;;;;;;;;;5070116;28;19962;-76
2023/05/30 10:51:51;;;;;;;;;;;;;;;;;;5069864;28;19952;-78
2023/05/30 10:54:16;;;;;;;;;;;;;;;;;;5067396;28;20410;-77
2023/05/30 10:56:42;;;;;;;;;;;;;;;;;;5068017;28;19916;-76
2023/05/30 10:59:07;;;;;;;;;;;;;;;;;;5049730;28;19912;-75
2023/05/30 11:01:32;;;;;;;;;;;;;;;;;;5067638;28;19922;-75
2023/05/30 11:03:57;;;;;;;;;;;;;;;;;;5067884;28;20002;-77
2023/05/30 11:06:23;;;;;;;;;;;;;;;;;;5067496;28;19923;-74
2023/05/30 11:08:48;;;;;;;;;;;;;;;;;;5067736;28;19946;-75
2023/05/30 11:11:13;;;;;;;;;;;;;;;;;;5049345;28;19923;-75
2023/05/30 11:13:39;;;;;;;;;;;;;;;;;;5068151;28;20404;-74
2023/05/30 11:16:04;;;;;;;;;;;;;;;;;;5066608;28;19912;-74
2023/05/30 11:18:29;;;;;;;;;;;;;;;;;;5067328;28;19912;-74
2023/05/30 11:20:55;;;;;;;;;;;;;;;;;;5067608;28;19966;-76
2023/05/30 11:23:21;;;;;;;;;;;;;;;;;;5067860;28;20287;-75
2023/05/30 11:25:47;;;;;;;;;;;;;;;;;;5067512;28;20363;-74
2023/05/30 11:28:13;;;;;;;;;;;;;;;;;;5055976;28;19916;-74
2023/05/30 11:30:38;;;;;;;;;;;;;;;;;;5058561;28;19916;-73
2023/05/30 11:33:04;;;;;;;;;;;;;;;;;;5049826;28;19919;-74
2023/05/30 11:35:29;;;;;;;;;;;;;;;;;;5048874;28;19922;-75
2023/05/30 11:37:55;;;;;;;;;;;;;;;;;;5049239;28;19917;-74
2023/05/30 11:40:20;;;;;;;;;;;;;;;;;;5066894;28;19928;-73
2023/05/30 11:42:45;;;;;;;;;;;;;;;;;;5032351;28;20082;-73
2023/05/30 11:45:11;;;;;;;;;;;;;;;;;;5063471;28;19923;-73
2023/05/30 11:47:36;;;;;;;;;;;;;;;;;;5072354;28;19923;-74
2023/05/30 11:50:02;;;;;;;;;;;;;;;;;;5070862;28;19912;-73
2023/05/30 11:52:27;;;;;;;;;;;;;;;;;;5058689;28;19916;-74
2023/05/30 11:54:52;;;;;;;;;;;;;;;;;;5068350;28;19912;-74
2023/05/30 11:57:19;;;;;;;;;;;;;;;;;;5070007;28;20423;-74
2023/05/30 11:59:45;;;;;;;;;;;;;;;;;;5050968;28;19908;-73
2023/05/30 12:02:10;;;;;;;;;;;;;;;;;;5067828;28;20310;-74
2023/05/30 12:04:37;;;;;;;;;;;;;;;;;;5068856;28;19920;-73
2023/05/30 12:07:03;;;;;;;;;;;;;;;;;;5050626;28;19916;-73
2023/05/30 12:09:28;;;;;;;;;;;;;;;;;;5068572;28;19961;-74
2023/05/30 12:11:53;;;;;;;;;;;;;;;;;;5069254;28;19920;-74
2023/05/30 12:14:19;;;;;;;;;;;;;;;;;;5034078;28;20428;-73
2023/05/30 12:16:44;;;;;;;;;;;;;;;;;;5051036;28;19979;-73
2023/05/30 12:19:10;;;;;;;;;;;;;;;;;;5050773;28;20046;-74
2023/05/30 12:21:36;;;;;;;;;;;;;;;;;;5073834;28;19924;-73
2023/05/30 12:24:02;;;;;;;;;;;;;;;;;;5064363;28;19908;-74
2023/05/30 12:26:27;;;;;;;;;;;;;;;;;;5070182;28;20680;-74
2023/05/30 12:28:53;;;;;;;;;;;;;;;;;;5088575;28;19912;-73
2023/05/30 12:31:18;;;;;;;;;;;;;;;;;;5071184;28;20330;-76
2023/05/30 12:33:43;;;;;;;;;;;;;;;;;;5068668;28;19908;-73
2023/05/30 12:36:08;;;;;;;;;;;;;;;;;;5050416;28;19966;-74
2023/05/30 12:38:34;;;;;;;;;;;;;;;;;;5068593;28;20487;-73
2023/05/30 12:40:59;;;;;;;;;;;;;;;;;;5067808;28;19920;-74
2023/05/30 12:43:24;;;;;;;;;;;;;;;;;;5049426;28;19918;-73
2023/05/30 12:45:50;;;;;;;;;;;;;;;;;;5068772;28;20320;-73
2023/05/30 12:48:15;;;;;;;;;;;;;;;;;;5068311;28;19920;-74
2023/05/30 12:50:40;;;;;;;;;;;;;;;;;;5058448;28;19915;-73
2023/05/30 12:53:05;;;;;;;;;;;;;;;;;;5047959;28;19917;-74
2023/05/30 12:55:31;;;;;;;;;;;;;;;;;;5040913;28;19969;-75
2023/05/30 12:57:57;;;;;;;;;;;;;;;;;;5068123;28;19980;-74
2023/05/30 13:00:23;;;;;;;;;;;;;;;;;;5068054;28;19924;-72
2023/05/30 13:02:48;;;;;;;;;;;;;;;;;;5068083;28;19916;-73
2023/05/30 13:05:13;;;;;;;;;;;;;;;;;;5068232;28;19941;-74
2023/05/30 13:07:38;;;;;;;;;;;;;;;;;;5067922;28;19951;-75
2023/05/30 13:10:04;;;;;;;;;;;;;;;;;;5067795;28;19935;-75
2023/05/30 13:12:29;;;;;;;;;;;;;;;;;;5067904;28;19923;-73
2023/05/30 13:14:54;;;;;;;;;;;;;;;;;;5067963;28;19923;-73
2023/05/30 13:17:19;;;;;;;;;;;;;;;;;;5067941;28;20283;-73
2023/05/30 13:19:45;;;;;;;;;;;;;;;;;;5050255;28;19913;-73
2023/05/30 13:22:12;;;;;;;;;;;;;;;;;;5068392;28;19920;-74
2023/05/30 13:24:37;;;;;;;;;;;;;;;;;;5067918;28;19913;-74
2023/05/30 13:27:03;;;;;;;;;;;;;;;;;;5067434;28;20008;-74
2023/05/30 13:29:28;;;;;;;;;;;;;;;;;;5068189;28;20415;-75
2023/05/30 13:31:53;;;;;;;;;;;;;;;;;;5067421;28;19912;-75
2023/05/30 13:34:18;;;;;;;;;;;;;;;;;;5066826;28;19913;-75
2023/05/30 13:36:44;;;;;;;;;;;;;;;;;;5067118;28;19919;-74
2023/05/30 13:39:09;;;;;;;;;;;;;;;;;;5069281;28;20288;-73
2023/05/30 13:41:35;;;;;;;;;;;;;;;;;;5072034;28;19952;-73
2023/05/30 13:44:01;;;;;;;;;;;;;;;;;;5071651;28;19919;-74
2023/05/30 13:46:26;;;;;;;;;;;;;;;;;;5033493;28;19938;-73
2023/05/30 13:48:52;;;;;;;;;;;;;;;;;;5051248;28;19916;-73
2023/05/30 13:51:18;;;;;;;;;;;;;;;;;;5058992;28;20367;-73
2023/05/30 13:53:43;;;;;;;;;;;;;;;;;;5060663;28;19959;-73
2023/05/30 13:56:08;;;;;;;;;;;;;;;;;;5068965;28;19966;-72
2023/05/30 13:58:34;;;;;;;;;;;;;;;;;;5075438;28;19934;-73
2023/05/30 14:01:01;;;;;;;;;;;;;;;;;;5060088;28;20019;-73
2023/05/30 14:03:27;;;;;;;;;;;;;;;;;;5056669;28;19930;-74
2023/05/30 14:05:53;;;;;;;;;;;;;;;;;;5072736;28;19908;-73
2023/05/30 14:08:19;;;;;;;;;;;;;;;;;;5054263;28;20362;-72
2023/05/30 14:10:44;;;;;;;;;;;;;;;;;;5053104;28;19923;-74
2023/05/30 14:13:12;;;;;;;;;;;;;;;;;;5068067;28;19912;-72
2023/05/30 14:15:37;;;;;;;;;;;;;;;;;;5070991;28;19912;-72
2023/05/30 14:18:03;;;;;;;;;;;;;;;;;;5070838;28;19919;-72
2023/05/30 14:20:29;;;;;;;;;;;;;;;;;;5070800;28;19912;-72
2023/05/30 14:22:54;;;;;;;;;;;;;;;;;;5072012;28;19999;-74
2023/05/30 14:25:20;;;;;;;;;;;;;;;;;;5068500;28;19999;-74
2023/05/30 14:27:45;;;;;;;;;;;;;;;;;;5070910;28;20289;-74
2023/05/30 14:30:13;;;;;;;;;;;;;;;;;;5052603;28;19908;-72
2023/05/30 14:32:38;;;;;;;;;;;;;;;;;;5072208;28;20371;-72
2023/05/30 14:35:03;;;;;;;;;;;;;;;;;;5068119;28;19908;-72
2023/05/30 14:37:28;;;;;;;;;;;;;;;;;;5060683;28;20376;-74
2023/05/30 14:39:54;;;;;;;;;;;;;;;;;;5060645;28;19909;-73
2023/05/30 14:42:20;;;;;;;;;;;;;;;;;;5058513;28;20011;-71
2023/05/30 14:44:45;;;;;;;;;;;;;;;;;;5063175;28;19983;-77
2023/05/30 14:47:10;;;;;;;;;;;;;;;;;;5059375;28;19916;-74
2023/05/30 14:49:36;;;;;;;;;;;;;;;;;;5060165;28;20002;-72
2023/05/30 14:52:01;;;;;;;;;;;;;;;;;;5040230;28;19909;-72
2023/05/30 14:54:27;;;;;;;;;;;;;;;;;;5042298;28;19939;-73
2023/05/30 14:56:52;;;;;;;;;;;;;;;;;;5051479;28;19928;-75
2023/05/30 14:59:17;;;;;;;;;;;;;;;;;;5032261;28;20394;-73
2023/05/30 15:01:43;;;;;;;;;;;;;;;;;;5049019;28;20018;-73
2023/05/30 15:04:08;;;;;;;;;;;;;;;;;;5050522;28;20368;-73
2023/05/30 15:06:34;;;;;;;;;;;;;;;;;;5050134;28;19920;-73
2023/05/30 15:08:59;;;;;;;;;;;;;;;;;;5050814;28;20024;-74
2023/05/30 15:11:26;;;;;;;;;;;;;;;;;;5050391;28;19905;-73
2023/05/30 15:13:51;;;;;;;;;;;;;;;;;;5048635;28;20006;-74
2023/05/30 15:16:16;;;;;;;;;;;;;;;;;;5050051;28;20020;-73
2023/05/30 15:18:42;;;;;;;;;;;;;;;;;;5050453;28;19923;-73
2023/05/30 15:21:07;;;;;;;;;;;;;;;;;;5050060;28;20007;-73
2023/05/30 15:23:32;;;;;;;;;;;;;;;;;;5050041;28;19916;-73
2023/05/30 15:25:57;;;;;;;;;;;;;;;;;;5049844;28;20871;-73
2023/05/30 15:28:22;;;;;;;;;;;;;;;;;;5049238;28;19913;-74
2023/05/30 15:30:48;;;;;;;;;;;;;;;;;;5075158;28;20540;-73
2023/05/30 15:33:13;;;;;;;;;;;;;;;;;;5067060;28;19912;-73
2023/05/30 15:35:38;;;;;;;;;;;;;;;;;;5068158;28;20287;-73
2023/05/30 15:38:04;;;;;;;;;;;;;;;;;;5057477;28;19912;-73
2023/05/30 15:40:29;;;;;;;;;;;;;;;;;;5051157;28;19927;-73
2023/05/30 15:42:55;;;;;;;;;;;;;;;;;;5051201;28;20372;-73
2023/05/30 15:45:20;;;;;;;;;;;;;;;;;;5051581;28;19912;-73
2023/05/30 15:47:45;;;;;;;;;;;;;;;;;;5069515;28;20310;-74
2023/05/30 15:50:11;;;;;;;;;;;;;;;;;;5069105;28;19919;-73
2023/05/30 15:52:37;;;;;;;;;;;;;;;;;;5068936;28;20351;-73
2023/05/30 15:55:02;;;;;;;;;;;;;;;;;;5056964;28;19912;-73
2023/05/30 15:57:27;;;;;;;;;;;;;;;;;;5049180;28;19913;-74
2023/05/30 15:59:52;;;;;;;;;;;;;;;;;;5068242;28;20367;-73
2023/05/30 16:02:18;;;;;;;;;;;;;;;;;;5076213;28;19927;-73
2023/05/30 16:04:43;;;;;;;;;;;;;;;;;;5068000;28;19918;-74
2023/05/30 16:07:08;;;;;;;;;;;;;;;;;;5068252;28;19963;-74
2023/05/30 16:09:35;;;;;;;;;;;;;;;;;;5068479;28;20362;-73
2023/05/30 16:12:01;;;;;;;;;;;;;;;;;;5073653;28;19937;-73
2023/05/30 16:14:27;;;;;;;;;;;;;;;;;;5063399;28;19912;-72
2023/05/30 16:16:52;;;;;;;;;;;;;;;;;;5059190;28;19947;-72
2023/05/30 16:19:17;;;;;;;;;;;;;;;;;;5057482;28;20287;-73
2023/05/30 16:21:43;;;;;;;;;;;;;;;;;;5058869;28;19924;-73
2023/05/30 16:24:08;;;;;;;;;;;;;;;;;;5061091;28;19919;-74
2023/05/30 16:26:33;;;;;;;;;;;;;;;;;;5057996;28;19942;-71
2023/05/30 16:28:59;;;;;;;;;;;;;;;;;;5067078;28;19955;-73
2023/05/30 16:31:24;;;;;;;;;;;;;;;;;;5068338;28;19913;-72
2023/05/30 16:33:50;;;;;;;;;;;;;;;;;;5051545;28;19935;-74